Paint Bank, Virginia
Current Conditions -  °F | °C
As of 10:35 PM on Saturday 22 Nov 2014 (Local Time) from KLWB Reporting Station
Overcast Overcast  
Wind Chill: 32°   Ceiling: 9000
Heat Index: 32°   Visibility: 10mi
Dew Point: 23°   Wind: 3mph
Humidity: 69%   Direction: 10°N
Pressure: 30.22"   Gusts: NA
Location:  37.57°N, 80.26°W
Report Text: KLWB 230335Z AUTO 01003KT 10SM OVC090 00/M05 A3022 RMK AO2 T00001051
Loading
Personal Weather Stations






























Interactive Weather Map New forecast layout! Learn more

10-Day Weather Forecast

Advertisements
Track Severe Weather on mobile